SWA1275 KMCO-KMYR
Flight info
| Callsign | SWA1275 |
|---|---|
| Flight time | 1h 8m |
| Altitude | 35000 |
| Route | FATHE4 VIYAP Q87 JROSS CHS |
| Aircraft | B738/M-SDE2E3FGHIRWXY/LB1 |
Departure
| Time | 2026-04-25 23:26 |
|---|---|
| Airport | Orlando International Airport (KMCO) |
Arrival
| Time | 2026-04-26 00:35 |
|---|---|
| Airport | Myrtle Beach International Airport (KMYR) |
| Time | Latitude | Longitude | Altitude | Speed | Heading |
|---|---|---|---|---|---|
| 2026-04-25 22:55 | 28.43335 | -81.31518 | 101 ft | 0 kts | 338° |
| 2026-04-25 23:15 | 28.43314 | -81.31506 | 100 ft | 4 kts | 314° |
| 2026-04-25 23:15 | 28.43304 | -81.31483 | 101 ft | 4 kts | 258° |
| 2026-04-25 23:15 | 28.43315 | -81.31456 | 99 ft | 4 kts | 235° |
| 2026-04-25 23:16 | 28.43327 | -81.31435 | 99 ft | 4 kts | 236° |
| 2026-04-25 23:16 | 28.43337 | -81.31418 | 100 ft | 0 kts | 236° |
| 2026-04-25 23:19 | 28.43331 | -81.31429 | 99 ft | 3 kts | 236° |
| 2026-04-25 23:19 | 28.43309 | -81.31466 | 99 ft | 8 kts | 236° |
| 2026-04-25 23:19 | 28.43274 | -81.31529 | 100 ft | 11 kts | 243° |
| 2026-04-25 23:20 | 28.43269 | -81.31587 | 101 ft | 11 kts | 278° |
| 2026-04-25 23:20 | 28.43284 | -81.31701 | 101 ft | 11 kts | 265° |
| 2026-04-25 23:20 | 28.43256 | -81.31774 | 101 ft | 8 kts | 237° |
| 2026-04-25 23:20 | 28.43252 | -81.31831 | 100 ft | 8 kts | 318° |
| 2026-04-25 23:21 | 28.43311 | -81.31841 | 100 ft | 10 kts | 359° |
| 2026-04-25 23:21 | 28.43405 | -81.31842 | 101 ft | 16 kts | 359° |
| 2026-04-25 23:21 | 28.43533 | -81.31844 | 104 ft | 20 kts | 359° |
| 2026-04-25 23:21 | 28.43678 | -81.31845 | 104 ft | 21 kts | 360° |
| 2026-04-25 23:22 | 28.43820 | -81.31846 | 106 ft | 20 kts | 360° |
| 2026-04-25 23:22 | 28.43956 | -81.31862 | 108 ft | 19 kts | 342° |
| 2026-04-25 23:22 | 28.44084 | -81.31899 | 108 ft | 19 kts | 358° |
| 2026-04-25 23:23 | 28.44337 | -81.31902 | 105 ft | 18 kts | 359° |
| 2026-04-25 23:23 | 28.44456 | -81.31903 | 105 ft | 17 kts | 359° |
| 2026-04-25 23:23 | 28.44574 | -81.31904 | 101 ft | 17 kts | 359° |
| 2026-04-25 23:23 | 28.44689 | -81.31905 | 100 ft | 16 kts | 359° |
| 2026-04-25 23:24 | 28.44786 | -81.31907 | 102 ft | 11 kts | 355° |
| 2026-04-25 23:24 | 28.44822 | -81.31940 | 102 ft | 11 kts | 291° |
| 2026-04-25 23:24 | 28.44826 | -81.32023 | 101 ft | 11 kts | 270° |
| 2026-04-25 23:24 | 28.44825 | -81.32106 | 99 ft | 11 kts | 269° |
| 2026-04-25 23:25 | 28.44822 | -81.32189 | 100 ft | 10 kts | 261° |
| 2026-04-25 23:25 | 28.44769 | -81.32229 | 101 ft | 10 kts | 185° |
| 2026-04-25 23:25 | 28.44697 | -81.32229 | 102 ft | 12 kts | 179° |
| 2026-04-25 23:25 | 28.44407 | -81.32226 | 104 ft | 77 kts | 179° |
| 2026-04-25 23:26 | 28.43653 | -81.32220 | 106 ft | 139 kts | 179° |
| 2026-04-25 23:26 | 28.42535 | -81.32204 | 321 ft | 171 kts | 178° |
| 2026-04-25 23:26 | 28.41361 | -81.32176 | 1159 ft | 169 kts | 179° |
| 2026-04-25 23:26 | 28.40165 | -81.32143 | 1865 ft | 173 kts | 184° |
| 2026-04-25 23:27 | 28.39001 | -81.32597 | 2186 ft | 195 kts | 211° |
| 2026-04-25 23:27 | 28.37743 | -81.33473 | 2423 ft | 218 kts | 224° |
| 2026-04-25 23:27 | 28.37047 | -81.35016 | 2658 ft | 232 kts | 265° |
| 2026-04-25 23:27 | 28.37458 | -81.36782 | 3155 ft | 240 kts | 305° |
| 2026-04-25 23:28 | 28.38743 | -81.37970 | 3823 ft | 242 kts | 334° |
| 2026-04-25 23:28 | 28.40379 | -81.38469 | 4450 ft | 248 kts | 352° |
| 2026-04-25 23:28 | 28.42132 | -81.38556 | 4944 ft | 260 kts | 358° |
| 2026-04-25 23:28 | 28.44071 | -81.38549 | 5395 ft | 275 kts | 359° |
| 2026-04-25 23:29 | 28.45911 | -81.38530 | 6053 ft | 280 kts | 359° |
| 2026-04-25 23:29 | 28.47876 | -81.38517 | 6740 ft | 284 kts | 359° |
| 2026-04-25 23:29 | 28.49856 | -81.38514 | 7485 ft | 286 kts | 358° |
| 2026-04-25 23:29 | 28.51849 | -81.38522 | 8247 ft | 287 kts | 358° |
| 2026-04-25 23:30 | 28.53856 | -81.38539 | 8972 ft | 290 kts | 357° |
| 2026-04-25 23:30 | 28.55884 | -81.38562 | 9722 ft | 292 kts | 357° |
| 2026-04-25 23:30 | 28.57930 | -81.38589 | 10343 ft | 299 kts | 356° |
| 2026-04-25 23:30 | 28.60085 | -81.38625 | 10519 ft | 321 kts | 356° |
| 2026-04-25 23:31 | 28.62362 | -81.38665 | 10685 ft | 342 kts | 356° |
| 2026-04-25 23:31 | 28.64830 | -81.38709 | 10975 ft | 357 kts | 356° |
| 2026-04-25 23:31 | 28.67303 | -81.38752 | 11544 ft | 361 kts | 356° |
| 2026-04-25 23:31 | 28.69819 | -81.38794 | 12287 ft | 362 kts | 356° |
| 2026-04-25 23:32 | 28.72340 | -81.38837 | 12993 ft | 363 kts | 356° |
| 2026-04-25 23:32 | 28.74872 | -81.38881 | 13694 ft | 365 kts | 356° |
| 2026-04-25 23:32 | 28.77425 | -81.38927 | 14314 ft | 368 kts | 356° |
| 2026-04-25 23:32 | 28.80037 | -81.38975 | 14902 ft | 373 kts | 356° |
| 2026-04-25 23:33 | 28.82643 | -81.39023 | 15485 ft | 377 kts | 356° |
| 2026-04-25 23:33 | 28.85245 | -81.39071 | 16073 ft | 380 kts | 356° |
| 2026-04-25 23:33 | 28.87903 | -81.39120 | 16655 ft | 384 kts | 356° |
| 2026-04-25 23:33 | 28.90591 | -81.39169 | 17228 ft | 388 kts | 356° |
| 2026-04-25 23:34 | 28.93305 | -81.39220 | 17790 ft | 392 kts | 356° |
| 2026-04-25 23:34 | 28.96050 | -81.39270 | 18324 ft | 396 kts | 357° |
| 2026-04-25 23:34 | 28.98817 | -81.39321 | 18803 ft | 400 kts | 357° |
| 2026-04-25 23:34 | 29.01613 | -81.39373 | 19268 ft | 404 kts | 357° |
| 2026-04-25 23:35 | 29.04429 | -81.39425 | 19754 ft | 407 kts | 357° |
| 2026-04-25 23:35 | 29.07270 | -81.39477 | 20246 ft | 409 kts | 357° |
| 2026-04-25 23:35 | 29.10126 | -81.39530 | 20719 ft | 412 kts | 357° |
| 2026-04-25 23:35 | 29.13228 | -81.39587 | 21217 ft | 416 kts | 356° |
| 2026-04-25 23:36 | 29.15910 | -81.39637 | 21635 ft | 419 kts | 356° |
| 2026-04-25 23:36 | 29.18834 | -81.39691 | 22090 ft | 422 kts | 356° |
| 2026-04-25 23:36 | 29.21776 | -81.39746 | 22526 ft | 425 kts | 356° |
| 2026-04-25 23:36 | 29.24745 | -81.39801 | 22958 ft | 428 kts | 356° |
| 2026-04-25 23:37 | 29.27730 | -81.39857 | 23363 ft | 431 kts | 356° |
| 2026-04-25 23:37 | 29.30743 | -81.39913 | 23668 ft | 435 kts | 356° |
| 2026-04-25 23:37 | 29.33781 | -81.39970 | 24014 ft | 438 kts | 356° |
| 2026-04-25 23:37 | 29.36830 | -81.40026 | 24399 ft | 439 kts | 356° |
| 2026-04-25 23:38 | 29.39891 | -81.40082 | 24778 ft | 440 kts | 356° |
| 2026-04-25 23:38 | 29.42961 | -81.40139 | 25137 ft | 442 kts | 356° |
| 2026-04-25 23:38 | 29.46043 | -81.40197 | 25483 ft | 444 kts | 356° |
| 2026-04-25 23:38 | 29.49145 | -81.40255 | 25817 ft | 447 kts | 356° |
| 2026-04-25 23:39 | 29.52258 | -81.40313 | 26150 ft | 448 kts | 356° |
| 2026-04-25 23:39 | 29.55385 | -81.40371 | 26484 ft | 451 kts | 356° |
| 2026-04-25 23:39 | 29.58527 | -81.40430 | 26772 ft | 453 kts | 356° |
| 2026-04-25 23:39 | 29.61694 | -81.40490 | 27067 ft | 456 kts | 356° |
| 2026-04-25 23:40 | 29.64871 | -81.40549 | 27385 ft | 458 kts | 356° |
| 2026-04-25 23:40 | 29.68063 | -81.40609 | 27691 ft | 460 kts | 356° |
| 2026-04-25 23:40 | 29.71266 | -81.40669 | 27984 ft | 462 kts | 356° |
| 2026-04-25 23:40 | 29.74481 | -81.40729 | 28270 ft | 463 kts | 356° |
| 2026-04-25 23:41 | 29.77715 | -81.40790 | 28549 ft | 465 kts | 356° |
| 2026-04-25 23:41 | 29.80957 | -81.40851 | 28828 ft | 467 kts | 356° |
| 2026-04-25 23:41 | 29.84211 | -81.40912 | 29134 ft | 468 kts | 356° |
| 2026-04-25 23:41 | 29.87472 | -81.40973 | 29492 ft | 468 kts | 356° |
| 2026-04-25 23:42 | 29.90726 | -81.41033 | 29913 ft | 467 kts | 356° |
| 2026-04-25 23:42 | 29.93965 | -81.41094 | 30308 ft | 465 kts | 356° |
| 2026-04-25 23:42 | 29.97194 | -81.41154 | 30703 ft | 463 kts | 356° |
| 2026-04-25 23:42 | 30.00401 | -81.41214 | 31074 ft | 461 kts | 356° |
| 2026-04-25 23:43 | 30.03603 | -81.41274 | 31433 ft | 460 kts | 356° |
| 2026-04-25 23:43 | 30.06801 | -81.41335 | 31793 ft | 458 kts | 356° |
| 2026-04-25 23:43 | 30.09941 | -81.41394 | 32167 ft | 457 kts | 355° |
| 2026-04-25 23:43 | 30.13113 | -81.41454 | 32558 ft | 455 kts | 355° |
| 2026-04-25 23:44 | 30.16281 | -81.41514 | 32867 ft | 455 kts | 355° |
| 2026-04-25 23:44 | 30.19382 | -81.41573 | 33182 ft | 454 kts | 355° |
| 2026-04-25 23:44 | 30.22531 | -81.41633 | 33551 ft | 452 kts | 355° |
| 2026-04-25 23:44 | 30.25619 | -81.41691 | 33917 ft | 450 kts | 355° |
| 2026-04-25 23:45 | 30.28572 | -81.41746 | 34203 ft | 448 kts | 355° |
| 2026-04-25 23:45 | 30.31316 | -81.41799 | 34422 ft | 448 kts | 355° |
| 2026-04-25 23:45 | 30.34439 | -81.41858 | 34670 ft | 448 kts | 355° |
| 2026-04-25 23:45 | 30.37550 | -81.41918 | 34898 ft | 448 kts | 355° |
| 2026-04-25 23:46 | 30.40686 | -81.41979 | 34874 ft | 452 kts | 355° |
| 2026-04-25 23:46 | 30.46563 | -81.42092 | 34880 ft | 451 kts | 355° |
| 2026-04-25 23:47 | 30.52754 | -81.42207 | 34899 ft | 445 kts | 355° |
| 2026-04-25 23:47 | 30.58719 | -81.42320 | 34910 ft | 444 kts | 355° |
| 2026-04-25 23:48 | 30.64530 | -81.42432 | 34908 ft | 443 kts | 355° |
| 2026-04-25 23:48 | 30.69889 | -81.42536 | 34919 ft | 444 kts | 355° |
| 2026-04-25 23:49 | 30.75137 | -81.42637 | 34913 ft | 445 kts | 355° |
| 2026-04-25 23:49 | 30.79852 | -81.42727 | 34909 ft | 446 kts | 355° |
| 2026-04-25 23:50 | 30.84512 | -81.42817 | 34903 ft | 447 kts | 355° |
| 2026-04-25 23:50 | 30.89488 | -81.42912 | 34901 ft | 448 kts | 355° |
| 2026-04-25 23:51 | 30.95731 | -81.43032 | 34887 ft | 449 kts | 355° |
| 2026-04-25 23:51 | 31.01994 | -81.43153 | 34880 ft | 451 kts | 355° |
| 2026-04-25 23:52 | 31.08280 | -81.43274 | 34885 ft | 452 kts | 355° |
| 2026-04-25 23:52 | 31.14583 | -81.43395 | 34880 ft | 454 kts | 355° |
| 2026-04-25 23:53 | 31.20413 | -81.43508 | 34900 ft | 455 kts | 355° |
| 2026-04-25 23:53 | 31.26691 | -81.42629 | 34907 ft | 465 kts | 12° |
| 2026-04-25 23:54 | 31.32526 | -81.39818 | 34905 ft | 471 kts | 21° |
| 2026-04-25 23:54 | 31.38357 | -81.36537 | 34896 ft | 473 kts | 21° |
| 2026-04-25 23:55 | 31.44121 | -81.33339 | 34896 ft | 474 kts | 21° |
| 2026-04-25 23:55 | 31.49674 | -81.30308 | 34893 ft | 475 kts | 21° |
| 2026-04-25 23:56 | 31.54824 | -81.27506 | 34896 ft | 475 kts | 20° |
| 2026-04-25 23:56 | 31.59751 | -81.24820 | 34886 ft | 475 kts | 20° |
| 2026-04-25 23:57 | 31.65025 | -81.21938 | 34882 ft | 473 kts | 20° |
| 2026-04-25 23:57 | 31.69960 | -81.19239 | 34875 ft | 472 kts | 20° |
| 2026-04-25 23:58 | 31.75882 | -81.15998 | 34869 ft | 470 kts | 20° |
| 2026-04-25 23:58 | 31.81799 | -81.12755 | 34865 ft | 469 kts | 20° |
| 2026-04-25 23:59 | 31.87701 | -81.09515 | 34854 ft | 468 kts | 20° |
| 2026-04-25 23:59 | 31.93590 | -81.06276 | 34853 ft | 467 kts | 20° |
| 2026-04-26 00:00 | 31.99470 | -81.03039 | 34848 ft | 467 kts | 20° |
| 2026-04-26 00:00 | 32.05345 | -80.99775 | 34865 ft | 468 kts | 20° |
| 2026-04-26 00:01 | 32.11230 | -80.96473 | 34871 ft | 470 kts | 22° |
| 2026-04-26 00:01 | 32.16747 | -80.92193 | 34887 ft | 481 kts | 37° |
| 2026-04-26 00:02 | 32.21672 | -80.86796 | 34900 ft | 484 kts | 40° |
| 2026-04-26 00:02 | 32.26515 | -80.81248 | 34894 ft | 486 kts | 40° |
| 2026-04-26 00:03 | 32.31353 | -80.75675 | 34901 ft | 486 kts | 40° |
| 2026-04-26 00:03 | 32.33781 | -80.72878 | 34661 ft | 488 kts | 40° |
| 2026-04-26 00:03 | 32.36207 | -80.70088 | 34421 ft | 485 kts | 40° |
| 2026-04-26 00:03 | 32.38620 | -80.67318 | 34182 ft | 482 kts | 40° |
| 2026-04-26 00:04 | 32.41028 | -80.64560 | 33956 ft | 481 kts | 40° |
| 2026-04-26 00:04 | 32.43416 | -80.61833 | 33683 ft | 474 kts | 40° |
| 2026-04-26 00:04 | 32.45774 | -80.59145 | 33408 ft | 467 kts | 40° |
| 2026-04-26 00:04 | 32.48094 | -80.56503 | 33130 ft | 458 kts | 40° |
| 2026-04-26 00:05 | 32.50379 | -80.53906 | 32869 ft | 455 kts | 40° |
| 2026-04-26 00:05 | 32.52680 | -80.51307 | 32626 ft | 459 kts | 40° |
| 2026-04-26 00:05 | 32.54979 | -80.48732 | 32486 ft | 462 kts | 40° |
| 2026-04-26 00:06 | 32.59693 | -80.43484 | 32394 ft | 458 kts | 40° |
| 2026-04-26 00:06 | 32.61974 | -80.40950 | 31882 ft | 456 kts | 40° |
| 2026-04-26 00:06 | 32.64299 | -80.38376 | 31167 ft | 460 kts | 40° |
| 2026-04-26 00:06 | 32.66656 | -80.35782 | 30364 ft | 462 kts | 40° |
| 2026-04-26 00:07 | 32.69028 | -80.33187 | 29294 ft | 465 kts | 40° |
| 2026-04-26 00:07 | 32.71454 | -80.30550 | 28092 ft | 469 kts | 40° |
| 2026-04-26 00:07 | 32.73842 | -80.27964 | 26898 ft | 472 kts | 40° |
| 2026-04-26 00:07 | 32.76279 | -80.25334 | 25726 ft | 475 kts | 40° |
| 2026-04-26 00:08 | 32.78741 | -80.22685 | 24748 ft | 481 kts | 40° |
| 2026-04-26 00:08 | 32.81216 | -80.20028 | 24211 ft | 476 kts | 40° |
| 2026-04-26 00:08 | 32.83639 | -80.17428 | 24076 ft | 461 kts | 40° |
| 2026-04-26 00:08 | 32.85982 | -80.14912 | 24003 ft | 446 kts | 40° |
| 2026-04-26 00:09 | 32.88247 | -80.12479 | 23917 ft | 432 kts | 40° |
| 2026-04-26 00:09 | 32.90453 | -80.10107 | 23682 ft | 424 kts | 40° |
| 2026-04-26 00:09 | 32.92631 | -80.07765 | 23218 ft | 422 kts | 40° |
| 2026-04-26 00:09 | 32.94806 | -80.05429 | 22681 ft | 420 kts | 40° |
| 2026-04-26 00:10 | 32.96970 | -80.03107 | 22220 ft | 416 kts | 40° |
| 2026-04-26 00:10 | 32.99102 | -80.00821 | 21685 ft | 409 kts | 40° |
| 2026-04-26 00:10 | 33.01210 | -79.98563 | 21044 ft | 406 kts | 40° |
| 2026-04-26 00:10 | 33.03260 | -79.96370 | 20428 ft | 403 kts | 40° |
| 2026-04-26 00:11 | 33.05255 | -79.94241 | 19875 ft | 400 kts | 40° |
| 2026-04-26 00:11 | 33.07226 | -79.92140 | 19341 ft | 395 kts | 40° |
| 2026-04-26 00:11 | 33.08453 | -79.90834 | 19014 ft | 393 kts | 40° |
| 2026-04-26 00:11 | 33.10341 | -79.88826 | 18506 ft | 389 kts | 40° |
| 2026-04-26 00:12 | 33.12159 | -79.86895 | 17988 ft | 386 kts | 40° |
| 2026-04-26 00:12 | 33.14104 | -79.84835 | 17403 ft | 382 kts | 40° |
| 2026-04-26 00:12 | 33.15950 | -79.82883 | 16893 ft | 381 kts | 40° |
| 2026-04-26 00:12 | 33.17852 | -79.80878 | 16515 ft | 377 kts | 40° |
| 2026-04-26 00:13 | 33.19610 | -79.79027 | 16207 ft | 373 kts | 39° |
| 2026-04-26 00:13 | 33.21386 | -79.77158 | 15934 ft | 367 kts | 39° |
| 2026-04-26 00:13 | 33.23136 | -79.75317 | 15588 ft | 365 kts | 39° |
| 2026-04-26 00:13 | 33.24928 | -79.73434 | 15202 ft | 363 kts | 39° |
| 2026-04-26 00:14 | 33.26671 | -79.71604 | 14844 ft | 361 kts | 40° |
| 2026-04-26 00:14 | 33.28374 | -79.69821 | 14489 ft | 359 kts | 39° |
| 2026-04-26 00:14 | 33.30081 | -79.68037 | 14147 ft | 357 kts | 39° |
| 2026-04-26 00:14 | 33.31738 | -79.66307 | 13839 ft | 355 kts | 39° |
| 2026-04-26 00:15 | 33.33381 | -79.64594 | 13501 ft | 352 kts | 39° |
| 2026-04-26 00:15 | 33.35051 | -79.62853 | 13126 ft | 350 kts | 39° |
| 2026-04-26 00:15 | 33.36776 | -79.61054 | 12741 ft | 349 kts | 39° |
| 2026-04-26 00:15 | 33.38586 | -79.59170 | 12337 ft | 346 kts | 39° |
| 2026-04-26 00:16 | 33.40361 | -79.57324 | 11955 ft | 344 kts | 39° |
| 2026-04-26 00:16 | 33.42090 | -79.55528 | 11586 ft | 342 kts | 39° |
| 2026-04-26 00:16 | 33.43797 | -79.53758 | 11223 ft | 340 kts | 39° |
| 2026-04-26 00:16 | 33.45463 | -79.52031 | 11030 ft | 339 kts | 39° |
| 2026-04-26 00:17 | 33.47263 | -79.50170 | 11000 ft | 343 kts | 39° |
| 2026-04-26 00:17 | 33.49042 | -79.48331 | 10983 ft | 341 kts | 39° |
| 2026-04-26 00:17 | 33.50847 | -79.46465 | 10992 ft | 334 kts | 39° |
| 2026-04-26 00:17 | 33.52561 | -79.44697 | 10974 ft | 323 kts | 39° |
| 2026-04-26 00:18 | 33.53957 | -79.43258 | 10972 ft | 311 kts | 39° |
| 2026-04-26 00:18 | 33.55214 | -79.41962 | 10971 ft | 300 kts | 39° |
| 2026-04-26 00:18 | 33.56474 | -79.40641 | 10979 ft | 293 kts | 39° |
| 2026-04-26 00:18 | 33.57824 | -79.39221 | 10984 ft | 290 kts | 39° |
| 2026-04-26 00:19 | 33.59221 | -79.37739 | 10994 ft | 292 kts | 39° |
| 2026-04-26 00:19 | 33.60759 | -79.36112 | 11000 ft | 292 kts | 39° |
| 2026-04-26 00:19 | 33.62246 | -79.34537 | 10997 ft | 292 kts | 39° |
| 2026-04-26 00:19 | 33.63705 | -79.32997 | 11001 ft | 293 kts | 39° |
| 2026-04-26 00:20 | 33.65023 | -79.31605 | 10986 ft | 293 kts | 39° |
| 2026-04-26 00:20 | 33.66414 | -79.30137 | 10992 ft | 293 kts | 39° |
| 2026-04-26 00:20 | 33.67893 | -79.28631 | 10980 ft | 292 kts | 32° |
| 2026-04-26 00:20 | 33.69622 | -79.27678 | 10947 ft | 284 kts | 14° |
| 2026-04-26 00:21 | 33.71506 | -79.27055 | 10682 ft | 279 kts | 12° |
| 2026-04-26 00:21 | 33.73344 | -79.26500 | 10191 ft | 280 kts | 11° |
| 2026-04-26 00:21 | 33.74991 | -79.26018 | 9788 ft | 280 kts | 11° |
| 2026-04-26 00:21 | 33.76424 | -79.25599 | 9413 ft | 280 kts | 11° |
| 2026-04-26 00:22 | 33.77861 | -79.25181 | 9049 ft | 280 kts | 11° |
| 2026-04-26 00:22 | 33.79283 | -79.24769 | 8707 ft | 279 kts | 11° |
| 2026-04-26 00:22 | 33.80743 | -79.24346 | 8368 ft | 278 kts | 11° |
| 2026-04-26 00:22 | 33.82344 | -79.23881 | 8002 ft | 276 kts | 11° |
| 2026-04-26 00:23 | 33.84092 | -79.23374 | 7572 ft | 276 kts | 11° |
| 2026-04-26 00:23 | 33.85957 | -79.22829 | 7143 ft | 275 kts | 11° |
| 2026-04-26 00:23 | 33.87795 | -79.22285 | 6917 ft | 266 kts | 11° |
| 2026-04-26 00:23 | 33.89540 | -79.21761 | 6816 ft | 252 kts | 11° |
| 2026-04-26 00:24 | 33.91178 | -79.21262 | 6667 ft | 242 kts | 11° |
| 2026-04-26 00:24 | 33.92792 | -79.20767 | 6359 ft | 240 kts | 11° |
| 2026-04-26 00:24 | 33.94223 | -79.20327 | 6023 ft | 240 kts | 11° |
| 2026-04-26 00:24 | 33.95508 | -79.19928 | 5733 ft | 240 kts | 11° |
| 2026-04-26 00:25 | 33.96963 | -79.19474 | 5409 ft | 239 kts | 11° |
| 2026-04-26 00:25 | 33.98315 | -79.19048 | 5120 ft | 239 kts | 11° |
| 2026-04-26 00:25 | 33.99781 | -79.18581 | 4828 ft | 238 kts | 12° |
| 2026-04-26 00:25 | 34.01267 | -79.17705 | 4409 ft | 244 kts | 41° |
| 2026-04-26 00:26 | 34.02109 | -79.16286 | 4093 ft | 245 kts | 70° |
| 2026-04-26 00:26 | 34.02302 | -79.14314 | 3815 ft | 241 kts | 104° |
| 2026-04-26 00:26 | 34.01660 | -79.12509 | 3572 ft | 233 kts | 128° |
| 2026-04-26 00:26 | 34.00720 | -79.10933 | 3343 ft | 230 kts | 135° |
| 2026-04-26 00:27 | 33.99606 | -79.09533 | 3120 ft | 227 kts | 140° |
| 2026-04-26 00:27 | 33.98491 | -79.08228 | 3028 ft | 227 kts | 141° |
| 2026-04-26 00:27 | 33.97351 | -79.06909 | 2990 ft | 227 kts | 141° |
| 2026-04-26 00:27 | 33.96216 | -79.05599 | 2967 ft | 224 kts | 141° |
| 2026-04-26 00:28 | 33.95115 | -79.04318 | 2934 ft | 214 kts | 141° |
| 2026-04-26 00:28 | 33.94078 | -79.03103 | 2826 ft | 203 kts | 141° |
| 2026-04-26 00:28 | 33.93076 | -79.01933 | 2611 ft | 199 kts | 141° |
| 2026-04-26 00:28 | 33.92088 | -79.00780 | 2375 ft | 197 kts | 141° |
| 2026-04-26 00:29 | 33.91107 | -78.99632 | 2117 ft | 196 kts | 141° |
| 2026-04-26 00:29 | 33.90109 | -78.98542 | 2048 ft | 187 kts | 154° |
| 2026-04-26 00:29 | 33.88945 | -78.98157 | 2006 ft | 167 kts | 176° |
| 2026-04-26 00:29 | 33.87840 | -78.97868 | 1994 ft | 160 kts | 172° |
| 2026-04-26 00:30 | 33.86869 | -78.97593 | 1982 ft | 159 kts | 173° |
| 2026-04-26 00:30 | 33.85781 | -78.97305 | 1990 ft | 163 kts | 172° |
| 2026-04-26 00:30 | 33.84658 | -78.97018 | 2006 ft | 167 kts | 172° |
| 2026-04-26 00:30 | 33.83503 | -78.96727 | 2002 ft | 170 kts | 173° |
| 2026-04-26 00:31 | 33.82573 | -78.96492 | 1998 ft | 164 kts | 174° |
| 2026-04-26 00:31 | 33.81480 | -78.96217 | 1970 ft | 158 kts | 174° |
| 2026-04-26 00:31 | 33.80423 | -78.95953 | 1995 ft | 161 kts | 172° |
| 2026-04-26 00:31 | 33.79308 | -78.95675 | 1962 ft | 167 kts | 172° |
| 2026-04-26 00:32 | 33.78330 | -78.95428 | 1795 ft | 159 kts | 173° |
| 2026-04-26 00:32 | 33.77318 | -78.95173 | 1596 ft | 148 kts | 173° |
| 2026-04-26 00:32 | 33.75339 | -78.94678 | 1232 ft | 144 kts | 173° |
| 2026-04-26 00:33 | 33.74391 | -78.94441 | 1047 ft | 145 kts | 171° |
| 2026-04-26 00:33 | 33.73386 | -78.94189 | 874 ft | 149 kts | 172° |
| 2026-04-26 00:33 | 33.72381 | -78.93942 | 706 ft | 146 kts | 173° |
| 2026-04-26 00:33 | 33.71386 | -78.93688 | 469 ft | 145 kts | 172° |
| 2026-04-26 00:34 | 33.70454 | -78.93462 | 302 ft | 140 kts | 172° |
| 2026-04-26 00:34 | 33.69511 | -78.93224 | 126 ft | 138 kts | 167° |
| 2026-04-26 00:34 | 33.68596 | -78.92988 | 31 ft | 120 kts | 168° |
| 2026-04-26 00:34 | 33.68012 | -78.92843 | 32 ft | 59 kts | 168° |
| 2026-04-26 00:35 | 33.67666 | -78.92755 | 31 ft | 42 kts | 168° |
| 2026-04-26 00:35 | 33.67404 | -78.92692 | 30 ft | 32 kts | 168° |
| 2026-04-26 00:35 | 33.67301 | -78.92636 | 29 ft | 13 kts | 108° |
| 2026-04-26 00:35 | 33.67316 | -78.92530 | 31 ft | 13 kts | 78° |
| 2026-04-26 00:36 | 33.67348 | -78.92447 | 31 ft | 9 kts | 5° |
| 2026-04-26 00:36 | 33.67400 | -78.92492 | 29 ft | 10 kts | 318° |
| 2026-04-26 00:36 | 33.67475 | -78.92531 | 30 ft | 15 kts | 12° |
| 2026-04-26 00:36 | 33.67592 | -78.92535 | 30 ft | 19 kts | 349° |
| 2026-04-26 00:37 | 33.67725 | -78.92568 | 31 ft | 19 kts | 348° |
| 2026-04-26 00:37 | 33.67837 | -78.92596 | 31 ft | 11 kts | 352° |
| 2026-04-26 00:37 | 33.67882 | -78.92540 | 30 ft | 8 kts | 63° |
| 2026-04-26 00:37 | 33.67933 | -78.92531 | 31 ft | 8 kts | 349° |
| 2026-04-26 00:38 | 33.67997 | -78.92546 | 31 ft | 11 kts | 348° |
| 2026-04-26 00:38 | 33.68069 | -78.92564 | 31 ft | 10 kts | 356° |
| 2026-04-26 00:38 | 33.68115 | -78.92511 | 30 ft | 10 kts | 70° |
| 2026-04-26 00:38 | 33.68146 | -78.92454 | 30 ft | 6 kts | 42° |
| 2026-04-26 00:39 | 33.68163 | -78.92411 | 31 ft | 6 kts | 75° |
| 2026-04-26 00:39 | 33.68166 | -78.92395 | 31 ft | 0 kts | 77° |